Time;durP1;ratioP1;P1;durP2;ratioP2;P2;SDS_P1;SDS_P2;PMS_P1;PMS_P2;Temp;Humidity;BMP_temperature;BMP_pressure;BME280_temperature;BME280_humidity;BME280_pressure;Samples;Min_cycle;Max_cycle;Signal;HPM_P1;HPM_P2
2022/01/21 00:00:37;;;;;;;;;;;;;;;18.83;44.70;100883.63;2085759;28;19919;-41
2022/01/21 00:01:38;;;;;;;;;;;;;;;18.83;44.60;100883.63;2084065;28;20388;-41
2022/01/21 00:02:39;;;;;;;;;;;;;;;18.85;44.75;100892.56;2084587;28;19960;-41
2022/01/21 00:03:40;;;;;;;;;;;;;;;18.84;44.62;100885.38;2079925;28;19917;-44
2022/01/21 00:04:40;;;;;;;;;;;;;;;18.84;44.77;100885.38;2083117;28;20323;-41
2022/01/21 00:05:40;;;;;;;;;;;;;;;18.83;44.74;100880.91;2083879;28;19938;-41
2022/01/21 00:06:41;;;;;;;;;;;;;;;18.85;44.58;100880.78;2080101;28;19959;-41
2022/01/21 00:07:41;;;;;;;;;;;;;;;18.84;44.59;100879.94;2085059;28;19924;-42
2022/01/21 00:08:45;;;;;;;;;;;;;;;18.82;44.57;100876.44;2081809;28;20303;-41
2022/01/21 00:09:47;;;;;;;;;;;;;;;18.82;44.67;100881.91;2078371;28;19912;-41
2022/01/21 00:10:47;;;;;;;;;;;;;;;18.81;44.64;100880.19;2084063;28;19924;-41
2022/01/21 00:11:47;;;;;;;;;;;;;;;18.81;44.70;100872.00;2080889;28;19959;-41
2022/01/21 00:12:52;;;;;;;;;;;;;;;18.80;44.57;100867.50;2084706;28;19931;-41
2022/01/21 00:13:52;;;;;;;;;;;;;;;18.80;44.57;100872.97;2083142;28;20340;-41
2022/01/21 00:14:52;;;;;;;;;;;;;;;18.81;44.63;100869.28;2084707;28;20339;-41
2022/01/21 00:15:53;;;;;;;;;;;;;;;18.81;44.62;100868.38;2084237;28;20473;-41
2022/01/21 00:16:53;;;;;;;;;;;;;;;18.80;44.64;100872.97;2089081;28;20456;-42
2022/01/21 00:17:53;;;;;;;;;;;;;;;18.79;44.58;100870.34;2089474;28;19915;-41
2022/01/21 00:19:02;;;;;;;;;;;;;;;18.79;44.57;100871.25;2080227;28;19923;-41
2022/01/21 00:30:36;;;;;;;;;;;;;;;18.85;44.51;100870.72;2078527;28;19921;-41
2022/01/21 00:31:37;;;;;;;;;;;;;;;18.84;44.38;100871.72;2084030;28;19975;-41
2022/01/21 00:32:37;;;;;;;;;;;;;;;18.86;44.34;100877.03;2082325;28;19929;-41
2022/01/21 00:33:37;;;;;;;;;;;;;;;18.85;44.47;100870.72;2079130;28;20336;-41
2022/01/21 00:34:38;;;;;;;;;;;;;;;18.83;44.47;100872.72;2081976;28;20353;-41
2022/01/21 00:35:38;;;;;;;;;;;;;;;18.84;44.46;100868.13;2082920;28;19920;-43
2022/01/21 00:36:38;;;;;;;;;;;;;;;18.83;44.60;100877.31;2085308;28;20238;-41
2022/01/21 00:37:39;;;;;;;;;;;;;;;18.83;44.46;100866.38;2081179;28;19935;-41
2022/01/21 00:38:41;;;;;;;;;;;;;;;18.81;44.61;100869.28;2082468;28;19986;-41
2022/01/21 00:39:44;;;;;;;;;;;;;;;18.83;44.45;100861.78;2081878;28;20655;-47
2022/01/21 00:40:45;;;;;;;;;;;;;;;18.82;44.50;100873.72;2079737;28;19979;-41
2022/01/21 00:41:57;;;;;;;;;;;;;;;18.82;44.65;100865.53;2082116;28;19921;-41
2022/01/21 00:43:15;;;;;;;;;;;;;;;18.81;44.51;100866.53;2082102;28;19979;-41
2022/01/21 00:44:16;;;;;;;;;;;;;;;18.82;44.51;100867.41;2082525;28;19916;-41
2022/01/21 00:45:18;;;;;;;;;;;;;;;18.80;44.55;100870.25;2083927;28;19974;-41
2022/01/21 00:46:19;;;;;;;;;;;;;;;18.82;44.49;100871.00;2083517;28;19926;-41
2022/01/21 00:47:19;;;;;;;;;;;;;;;18.82;44.58;100861.94;2084543;28;19924;-41
2022/01/21 00:48:20;;;;;;;;;;;;;;;18.81;44.75;100863.81;2082118;28;19924;-41
2022/01/21 00:49:20;;;;;;;;;;;;;;;18.81;44.58;100863.81;2081367;28;19916;-41
2022/01/21 00:50:21;;;;;;;;;;;;;;;18.81;44.72;100861.06;2083816;28;20323;-41
2022/01/21 00:51:21;;;;;;;;;;;;;;;18.81;44.58;100863.81;2083504;28;19928;-41
2022/01/21 00:52:22;;;;;;;;;;;;;;;18.83;44.65;100869.13;2083394;28;19927;-43
2022/01/21 00:53:22;;;;;;;;;;;;;;;18.82;44.53;100859.19;2082040;28;19921;-41
2022/01/21 00:54:23;;;;;;;;;;;;;;;18.82;44.54;100865.53;2086162;28;19975;-41
2022/01/21 00:55:23;;;;;;;;;;;;;;;18.82;44.65;100867.41;2079471;28;19924;-41
2022/01/21 00:56:24;;;;;;;;;;;;;;;18.82;44.57;100864.66;2082892;28;20243;-41
2022/01/21 00:57:24;;;;;;;;;;;;;;;18.81;44.63;100877.47;2080951;28;20130;-41
2022/01/21 00:58:24;;;;;;;;;;;;;;;18.79;44.56;100871.25;2080235;28;19925;-41
2022/01/21 00:59:24;;;;;;;;;;;;;;;18.81;44.64;100879.28;2080745;28;20362;-41
2022/01/21 01:00:25;;;;;;;;;;;;;;;18.81;44.48;100874.72;2085417;28;19928;-41
2022/01/21 01:01:26;;;;;;;;;;;;;;;18.81;44.58;100873.84;2083381;28;19916;-41
2022/01/21 01:02:26;;;;;;;;;;;;;;;18.80;44.48;100872.13;2083541;28;20022;-41
2022/01/21 01:03:27;;;;;;;;;;;;;;;18.81;44.57;100871.09;2084415;28;20003;-41
2022/01/21 01:04:27;;;;;;;;;;;;;;;18.79;44.57;100868.53;2083684;28;20927;-41
2022/01/21 01:05:27;;;;;;;;;;;;;;;18.80;44.51;100878.44;2084303;28;20153;-41
2022/01/21 01:06:28;;;;;;;;;;;;;;;18.79;44.54;100873.97;2083189;28;20510;-41
2022/01/21 01:07:28;;;;;;;;;;;;;;;18.79;44.55;100868.53;2084709;28;19978;-41
2022/01/21 01:08:28;;;;;;;;;;;;;;;18.79;44.50;100865.78;2083301;28;20440;-41
2022/01/21 01:09:28;;;;;;;;;;;;;;;18.78;44.68;100868.63;2082188;28;20410;-41
2022/01/21 01:20:56;;;;;;;;;;;;;;;18.73;44.75;100858.06;2081315;28;19930;-41
2022/01/21 01:21:57;;;;;;;;;;;;;;;18.73;44.63;100863.53;2079968;28;20314;-41
2022/01/21 01:23:24;;;;;;;;;;;;;;;18.72;44.71;100859.06;2082006;28;20485;-41
2022/01/21 01:28:21;;;;;;;;;;;;;;;18.71;44.81;100857.31;2081927;28;19920;-41
2022/01/21 01:29:23;;;;;;;;;;;;;;;18.71;44.67;100856.47;2083377;28;19920;-41
2022/01/21 01:30:25;;;;;;;;;;;;;;;18.70;44.82;100855.59;2084829;28;20404;-41
2022/01/21 01:31:25;;;;;;;;;;;;;;;18.70;44.81;100850.13;2085495;28;19970;-41
2022/01/21 01:32:28;;;;;;;;;;;;;;;18.71;44.81;100859.19;2078313;28;19928;-41
2022/01/21 01:33:35;;;;;;;;;;;;;;;18.70;44.80;100855.59;2082471;28;19924;-41
2022/01/21 01:34:36;;;;;;;;;;;;;;;18.70;44.59;100866.53;2083396;28;19930;-41
2022/01/21 01:35:36;;;;;;;;;;;;;;;18.70;44.83;100861.06;2084620;28;19913;-41
2022/01/21 01:36:37;;;;;;;;;;;;;;;18.71;44.70;100868.25;2084034;28;19966;-41
2022/01/21 01:41:15;;;;;;;;;;;;;;;18.67;44.68;100861.31;2084535;28;19962;-41
2022/01/21 01:49:32;;;;;;;;;;;;;;;18.66;44.85;100865.03;2082920;28;19921;-42
2022/01/21 01:50:33;;;;;;;;;;;;;;;18.66;44.95;100864.19;2084005;28;19921;-41
2022/01/21 01:51:34;;;;;;;;;;;;;;;18.65;44.84;100860.59;2082601;28;19966;-41
2022/01/21 01:52:34;;;;;;;;;;;;;;;18.64;44.84;100861.56;2082767;28;19920;-41
2022/01/21 01:53:37;;;;;;;;;;;;;;;18.64;44.93;100856.09;2081893;28;19920;-41
2022/01/21 01:54:39;;;;;;;;;;;;;;;18.63;44.93;100862.56;2081668;28;19916;-42
2022/01/21 01:55:40;;;;;;;;;;;;;;;18.64;44.91;100867.03;2082864;28;19920;-41
2022/01/21 01:56:44;;;;;;;;;;;;;;;18.65;44.89;100857.84;2078272;28;20360;-41
2022/01/21 01:57:45;;;;;;;;;;;;;;;18.65;44.87;100863.31;2081962;28;19920;-41
2022/01/21 01:58:45;;;;;;;;;;;;;;;18.67;44.81;100860.44;2083031;28;19965;-41
2022/01/21 01:59:46;;;;;;;;;;;;;;;18.65;44.81;100855.13;2083549;28;20533;-41
2022/01/21 02:00:46;;;;;;;;;;;;;;;18.66;44.90;100862.31;2083627;28;19924;-41
2022/01/21 02:01:50;;;;;;;;;;;;;;;18.65;44.75;100857.84;2083677;28;20006;-41
2022/01/21 02:02:50;;;;;;;;;;;;;;;18.65;44.74;100860.59;2083817;28;19921;-41
2022/01/21 02:03:51;;;;;;;;;;;;;;;18.64;44.84;100856.09;2080180;28;19920;-41
2022/01/21 02:04:51;;;;;;;;;;;;;;;18.64;44.76;100854.25;2082831;28;20597;-41
2022/01/21 02:05:51;;;;;;;;;;;;;;;18.64;45.00;100856.09;2080314;28;19920;-41
2022/01/21 02:06:52;;;;;;;;;;;;;;;18.63;44.95;100848.91;2083565;28;20379;-41
2022/01/21 02:07:52;;;;;;;;;;;;;;;18.64;44.84;100856.09;2085031;28;20145;-41
2022/01/21 02:08:53;;;;;;;;;;;;;;;18.62;44.80;100850.78;2085025;28;19920;-41
2022/01/21 02:09:53;;;;;;;;;;;;;;;18.62;44.77;100852.66;2082116;28;19921;-41
2022/01/21 02:10:53;;;;;;;;;;;;;;;18.62;44.86;100852.66;2086197;28;19927;-41
2022/01/21 02:11:54;;;;;;;;;;;;;;;18.61;44.89;100850.91;2084250;28;19920;-42
2022/01/21 02:13:04;;;;;;;;;;;;;;;18.61;44.85;100846.31;2084545;28;19931;-41
2022/01/21 02:14:08;;;;;;;;;;;;;;;18.61;44.77;100848.19;2084076;28;19919;-41
2022/01/21 02:15:09;;;;;;;;;;;;;;;18.60;44.87;100846.44;2085121;28;19939;-41
2022/01/21 02:21:31;;;;;;;;;;;;;;;18.58;44.97;100845.72;2080665;28;19917;-41
2022/01/21 02:22:37;;;;;;;;;;;;;;;18.57;44.98;100844.84;2082158;28;20000;-41
2022/01/21 02:23:37;;;;;;;;;;;;;;;18.57;44.82;100844.84;2085788;28;19928;-41
2022/01/21 02:24:59;;;;;;;;;;;;;;;18.57;45.05;100838.50;2083727;28;19916;-41
2022/01/21 02:26:00;;;;;;;;;;;;;;;18.58;45.01;100837.50;2086547;28;19913;-41
2022/01/21 02:27:01;;;;;;;;;;;;;;;18.58;45.07;100846.56;2084996;28;19920;-41
2022/01/21 02:28:02;;;;;;;;;;;;;;;18.59;44.89;100847.44;2081844;28;19943;-41
2022/01/21 02:29:04;;;;;;;;;;;;;;;18.59;45.03;100848.31;2089453;28;19931;-41
2022/01/21 02:30:06;;;;;;;;;;;;;;;18.60;45.04;100846.44;2083254;28;19984;-41
2022/01/21 02:31:06;;;;;;;;;;;;;;;18.59;45.04;100842.88;2082240;28;19927;-41
2022/01/21 02:32:06;;;;;;;;;;;;;;;18.61;44.85;100850.91;2081742;28;20248;-42
2022/01/21 02:33:07;;;;;;;;;;;;;;;18.60;44.77;100847.31;2083327;28;19920;-41
2022/01/21 02:34:08;;;;;;;;;;;;;;;18.61;44.76;100851.75;2083817;28;20304;-41
2022/01/21 02:35:08;;;;;;;;;;;;;;;18.61;44.78;100850.91;2082064;28;19923;-41
2022/01/21 02:36:09;;;;;;;;;;;;;;;18.61;44.79;100845.44;2082865;28;19917;-41
2022/01/21 02:37:13;;;;;;;;;;;;;;;18.60;44.82;100836.38;2083162;28;20188;-41
2022/01/21 02:38:14;;;;;;;;;;;;;;;18.60;44.88;100847.31;2083042;28;19924;-41
2022/01/21 02:39:14;;;;;;;;;;;;;;;18.62;44.81;100841.75;2084609;28;20382;-41
2022/01/21 02:40:16;;;;;;;;;;;;;;;18.60;44.93;100841.00;2083206;28;19920;-41
2022/01/21 02:41:16;;;;;;;;;;;;;;;18.59;44.82;100840.13;2085612;28;20003;-41
2022/01/21 02:42:16;;;;;;;;;;;;;;;18.58;44.73;100843.84;2077870;28;20572;-41
2022/01/21 02:43:17;;;;;;;;;;;;;;;18.58;44.92;100841.09;2080312;28;19921;-41
2022/01/21 02:44:18;;;;;;;;;;;;;;;18.58;44.82;100834.78;2085389;28;19927;-41
2022/01/21 02:45:18;;;;;;;;;;;;;;;18.55;44.78;100830.44;2084862;28;19976;-41
2022/01/21 02:46:22;;;;;;;;;;;;;;;18.56;44.98;100836.78;2084848;28;20261;-41
2022/01/21 02:47:22;;;;;;;;;;;;;;;18.54;45.06;100833.28;2086182;28;19921;-41
2022/01/21 02:48:23;;;;;;;;;;;;;;;18.55;45.00;100837.78;2085628;28;19916;-41
2022/01/21 02:49:24;;;;;;;;;;;;;;;18.54;44.87;100833.28;2085117;28;19932;-41
2022/01/21 02:50:24;;;;;;;;;;;;;;;18.53;44.86;100832.44;2080739;28;20358;-41
2022/01/21 02:51:24;;;;;;;;;;;;;;;18.51;44.89;100823.50;2083734;28;19921;-41
2022/01/21 02:52:28;;;;;;;;;;;;;;;18.52;45.03;100824.38;2085294;28;19920;-41
2022/01/21 02:53:40;;;;;;;;;;;;;;;18.52;45.12;100827.09;2082025;28;19923;-41
2022/01/21 02:54:40;;;;;;;;;;;;;;;18.52;45.05;100818.91;2084496;28;19928;-41
2022/01/21 02:55:40;;;;;;;;;;;;;;;18.51;44.93;100817.19;2084069;28;20417;-41
2022/01/21 02:56:41;;;;;;;;;;;;;;;18.51;44.92;100822.66;2083905;28;19966;-41
2022/01/21 02:57:41;;;;;;;;;;;;;;;18.50;45.06;100823.66;2084299;28;19916;-41
2022/01/21 02:58:41;;;;;;;;;;;;;;;18.50;45.08;100821.78;2086000;28;19948;-41
2022/01/21 02:59:42;;;;;;;;;;;;;;;18.51;44.97;100822.66;2084553;28;19936;-41
2022/01/21 03:00:42;;;;;;;;;;;;;;;18.49;44.97;100817.28;2084924;28;19921;-41
2022/01/21 03:01:43;;;;;;;;;;;;;;;18.50;45.09;100821.78;2084536;28;19935;-41
2022/01/21 03:02:44;;;;;;;;;;;;;;;18.51;45.02;100818.03;2084476;28;19920;-41
2022/01/21 03:03:45;;;;;;;;;;;;;;;18.49;45.07;100819.16;2083679;28;20034;-41
2022/01/21 03:05:07;;;;;;;;;;;;;;;18.50;45.14;100815.47;2069920;28;19921;-41
2022/01/21 03:06:07;;;;;;;;;;;;;;;18.49;45.08;100821.91;2084513;28;19942;-41
2022/01/21 03:07:07;;;;;;;;;;;;;;;18.49;44.91;100825.50;2082289;28;19966;-41
2022/01/21 03:08:08;;;;;;;;;;;;;;;18.48;45.03;100823.78;2083221;28;20566;-41
2022/01/21 03:09:08;;;;;;;;;;;;;;;18.47;45.14;100827.50;2080896;28;19916;-41
2022/01/21 03:10:09;;;;;;;;;;;;;;;18.48;45.10;100822.91;2084943;28;19991;-41
2022/01/21 03:11:12;;;;;;;;;;;;;;;18.49;45.05;100820.03;2080516;28;19919;-41
2022/01/21 03:12:12;;;;;;;;;;;;;;;18.49;44.97;100827.34;2088717;28;19962;-41
2022/01/21 03:13:12;;;;;;;;;;;;;;;18.48;44.98;100817.44;2090803;28;20347;-41
2022/01/21 03:14:13;;;;;;;;;;;;;;;18.48;44.92;100822.91;2090278;28;19920;-41
2022/01/21 03:15:13;;;;;;;;;;;;;;;18.48;45.04;100820.19;2085120;28;20339;-41
2022/01/21 03:16:13;;;;;;;;;;;;;;;18.47;44.99;100815.69;2084463;28;19916;-41
2022/01/21 03:17:14;;;;;;;;;;;;;;;18.46;44.93;100819.44;2085378;28;19921;-41
2022/01/21 03:18:15;;;;;;;;;;;;;;;18.45;45.04;100813.13;2084024;28;19974;-41
2022/01/21 03:19:15;;;;;;;;;;;;;;;18.45;45.19;100817.69;2082470;28;19916;-41
2022/01/21 03:20:15;;;;;;;;;;;;;;;18.43;45.12;100817.81;2086699;28;19923;-41
2022/01/21 03:21:16;;;;;;;;;;;;;;;18.43;45.16;100815.97;2084395;28;19916;-41
2022/01/21 03:22:17;;;;;;;;;;;;;;;18.42;44.99;100819.69;2086158;28;19924;-41
2022/01/21 03:23:19;;;;;;;;;;;;;;;18.43;45.13;100821.41;2085434;28;20006;-41
2022/01/21 03:24:19;;;;;;;;;;;;;;;18.41;45.17;100822.53;2082885;28;21124;-41
2022/01/21 03:25:20;;;;;;;;;;;;;;;18.42;45.21;100813.34;2085467;28;19917;-41
2022/01/21 03:26:21;;;;;;;;;;;;;;;18.41;45.00;100820.69;2081575;28;19957;-41
2022/01/21 03:27:22;;;;;;;;;;;;;;;18.42;44.98;100837.91;2085237;28;20384;-41
2022/01/21 03:28:22;;;;;;;;;;;;;;;18.39;44.87;100814.47;2084126;28;19917;-41
2022/01/21 03:29:22;;;;;;;;;;;;;;;18.40;45.10;100818.09;2083179;28;20742;-40
2022/01/21 03:30:23;;;;;;;;;;;;;;;18.40;45.17;100821.69;2083230;28;20026;-41
2022/01/21 03:31:23;;;;;;;;;;;;;;;18.37;45.02;100821.94;2085643;28;19928;-41
2022/01/21 03:32:24;;;;;;;;;;;;;;;18.39;45.12;100824.53;2083089;28;20570;-41
2022/01/21 03:33:25;;;;;;;;;;;;;;;18.39;45.19;100819.94;2083300;28;19920;-41
2022/01/21 03:34:25;;;;;;;;;;;;;;;18.39;45.14;100819.94;2079848;28;19955;-41
2022/01/21 03:35:25;;;;;;;;;;;;;;;18.38;45.25;100828.25;2084931;28;19946;-41
2022/01/21 03:36:27;;;;;;;;;;;;;;;18.39;45.29;100836.31;2083966;28;19924;-41
2022/01/21 03:37:27;;;;;;;;;;;;;;;18.38;45.04;100823.66;2085748;28;20263;-41
2022/01/21 03:38:28;;;;;;;;;;;;;;;18.38;45.07;100822.81;2083196;28;20253;-41
2022/01/21 03:39:28;;;;;;;;;;;;;;;18.39;45.11;100824.53;2081783;28;19921;-41
2022/01/21 03:40:29;;;;;;;;;;;;;;;18.38;44.99;100823.66;2084839;28;19921;-41
2022/01/21 03:41:29;;;;;;;;;;;;;;;18.38;45.19;100831.00;2083214;28;19920;-41
2022/01/21 03:42:30;;;;;;;;;;;;;;;18.37;45.19;100821.06;2084206;28;20924;-42
2022/01/21 03:43:31;;;;;;;;;;;;;;;18.37;45.14;100827.41;2088638;28;19912;-41
2022/01/21 03:44:31;;;;;;;;;;;;;;;18.37;45.10;100832.88;2092317;28;19931;-41
2022/01/21 03:45:31;;;;;;;;;;;;;;;18.37;44.95;100826.50;2085507;28;19920;-41
2022/01/21 03:46:31;;;;;;;;;;;;;;;18.36;45.23;100831.13;2082899;28;20251;-41
2022/01/21 03:47:32;;;;;;;;;;;;;;;18.34;45.26;100824.91;2079358;28;19921;-41
2022/01/21 03:48:33;;;;;;;;;;;;;;;18.34;45.24;100830.38;2080832;28;20347;-41
2022/01/21 03:49:39;;;;;;;;;;;;;;;18.33;45.18;100822.31;2084455;28;19943;-41
2022/01/21 03:50:39;;;;;;;;;;;;;;;18.31;45.16;100822.44;2085813;28;19983;-41
2022/01/21 03:51:39;;;;;;;;;;;;;;;18.32;45.25;100829.63;2084449;28;19928;-41
2022/01/21 03:52:40;;;;;;;;;;;;;;;18.31;45.09;100825.16;2083980;28;19931;-40
2022/01/21 03:53:40;;;;;;;;;;;;;;;18.31;45.19;100827.91;2084896;28;20334;-41
2022/01/21 03:54:40;;;;;;;;;;;;;;;18.31;45.13;100824.31;2083667;28;20750;-41
2022/01/21 03:55:41;;;;;;;;;;;;;;;18.31;45.35;100835.22;2085618;28;19939;-41
2022/01/21 03:56:41;;;;;;;;;;;;;;;18.30;45.26;100826.19;2080065;28;20205;-41
2022/01/21 03:57:42;;;;;;;;;;;;;;;18.29;45.34;100824.44;2084670;28;20034;-41
2022/01/21 03:58:43;;;;;;;;;;;;;;;18.28;45.25;100825.44;2079010;28;19925;-41
2022/01/21 03:59:43;;;;;;;;;;;;;;;18.28;45.21;100828.16;2083894;28;20278;-41
2022/01/21 04:00:47;;;;;;;;;;;;;;;18.28;45.23;100830.88;2085286;28;19913;-41
2022/01/21 04:01:48;;;;;;;;;;;;;;;18.28;45.26;100833.63;2083916;28;20261;-41
2022/01/21 04:02:48;;;;;;;;;;;;;;;18.28;45.28;100830.03;2084079;28;19955;-41
2022/01/21 04:03:48;;;;;;;;;;;;;;;18.29;45.33;100834.47;2083227;28;20289;-41
2022/01/21 04:04:49;;;;;;;;;;;;;;;18.28;45.21;100833.63;2083539;28;19916;-41
2022/01/21 04:05:49;;;;;;;;;;;;;;;18.27;45.14;100834.59;2083044;28;20327;-41
2022/01/21 04:06:50;;;;;;;;;;;;;;;18.28;45.22;100833.63;2084474;28;20226;-41
2022/01/21 04:07:50;;;;;;;;;;;;;;;18.28;45.18;100827.31;2084236;28;19908;-41
2022/01/21 04:08:50;;;;;;;;;;;;;;;18.28;45.35;100833.63;2085255;28;19912;-41
2022/01/21 04:09:51;;;;;;;;;;;;;;;18.28;45.13;100830.88;2083714;28;19950;-41
2022/01/21 04:10:51;;;;;;;;;;;;;;;18.28;45.08;100821.84;2084874;28;20364;-42
2022/01/21 04:11:52;;;;;;;;;;;;;;;18.28;45.30;100828.16;2082092;28;20054;-41
2022/01/21 04:12:52;;;;;;;;;;;;;;;18.28;45.30;100824.56;2081924;28;20350;-41
2022/01/21 04:13:54;;;;;;;;;;;;;;;18.27;45.20;100834.59;2082653;28;19916;-41
2022/01/21 04:14:57;;;;;;;;;;;;;;;18.27;45.40;100820.94;2079537;28;19921;-41
2022/01/21 04:15:59;;;;;;;;;;;;;;;18.26;45.36;100830.16;2079205;28;20101;-41
2022/01/21 04:16:59;;;;;;;;;;;;;;;18.27;45.15;100828.28;2084458;28;19931;-41
2022/01/21 04:17:59;;;;;;;;;;;;;;;18.26;45.23;100830.16;2082493;28;20388;-41
2022/01/21 04:18:59;;;;;;;;;;;;;;;18.26;45.44;100824.69;2083651;28;20007;-41
2022/01/21 04:20:00;;;;;;;;;;;;;;;18.25;45.19;100825.69;2083063;28;20171;-41
2022/01/21 04:21:00;;;;;;;;;;;;;;;18.25;45.47;100822.06;2084530;28;20079;-41
2022/01/21 04:22:00;;;;;;;;;;;;;;;18.22;45.46;100825.94;2081627;28;19963;-41
2022/01/21 04:23:01;;;;;;;;;;;;;;;18.21;45.39;100822.34;2083732;28;20346;-41
2022/01/21 04:24:02;;;;;;;;;;;;;;;18.21;45.40;100824.19;2082362;28;19920;-41
2022/01/21 04:25:04;;;;;;;;;;;;;;;18.20;45.26;100825.19;2083221;28;19916;-41
2022/01/21 04:26:04;;;;;;;;;;;;;;;18.19;45.44;100826.19;2084776;28;19956;-41
2022/01/21 04:27:04;;;;;;;;;;;;;;;18.20;45.50;100827.91;2080510;28;19916;-41
2022/01/21 04:28:05;;;;;;;;;;;;;;;18.19;45.37;100823.47;2083079;28;20009;-41
2022/01/21 04:29:05;;;;;;;;;;;;;;;18.18;45.42;100827.19;2083885;28;19962;-41
2022/01/21 04:30:07;;;;;;;;;;;;;;;18.17;45.50;100817.25;2083852;28;20250;-41
2022/01/21 04:31:07;;;;;;;;;;;;;;;18.18;45.38;100821.72;2082612;28;20003;-41
2022/01/21 04:32:08;;;;;;;;;;;;;;;18.17;45.42;100826.31;2084761;28;20401;-41
2022/01/21 04:33:08;;;;;;;;;;;;;;;18.17;45.62;100822.72;2084460;28;19920;-43
2022/01/21 04:34:09;;;;;;;;;;;;;;;18.16;45.53;100827.31;2083916;28;19909;-41
2022/01/21 04:35:09;;;;;;;;;;;;;;;18.16;45.61;100830.03;2084577;28;19912;-41
2022/01/21 04:36:10;;;;;;;;;;;;;;;18.15;45.60;100828.31;2082104;28;19916;-41
2022/01/21 04:37:12;;;;;;;;;;;;;;;18.15;45.56;100817.41;2079050;28;20516;-41
2022/01/21 04:38:16;;;;;;;;;;;;;;;18.16;45.71;100829.19;2081978;28;20306;-41
2022/01/21 04:39:23;;;;;;;;;;;;;;;18.16;45.37;100829.19;2084205;28;19920;-41
2022/01/21 04:40:28;;;;;;;;;;;;;;;18.17;45.54;100828.16;2085125;28;19990;-41
2022/01/21 04:47:50;;;;;;;;;;;;;;;18.20;45.35;100827.91;2078060;28;19924;-41
2022/01/21 04:48:50;;;;;;;;;;;;;;;18.19;45.27;100839.81;2083625;28;19963;-41
2022/01/21 04:49:51;;;;;;;;;;;;;;;18.17;45.35;100839.94;2082036;28;19922;-41
2022/01/21 04:50:54;;;;;;;;;;;;;;;18.17;45.47;100841.81;2078850;28;20449;-41
2022/01/21 04:52:04;;;;;;;;;;;;;;;18.17;45.29;100841.81;2082452;28;19962;-41
2022/01/21 04:53:05;;;;;;;;;;;;;;;18.16;45.44;100837.34;2081835;28;20429;-41
2022/01/21 04:54:05;;;;;;;;;;;;;;;18.15;45.47;100838.34;2081699;28;19924;-41
2022/01/21 04:55:06;;;;;;;;;;;;;;;18.14;45.30;100837.47;2082225;28;19932;-41
2022/01/21 04:56:07;;;;;;;;;;;;;;;18.13;45.24;100830.28;2082041;28;19928;-41
2022/01/21 04:57:07;;;;;;;;;;;;;;;18.12;45.41;100833.13;2084092;28;19939;-41
2022/01/21 04:58:08;;;;;;;;;;;;;;;18.12;45.42;100838.59;2083614;28;19951;-41
2022/01/21 04:59:08;;;;;;;;;;;;;;;18.11;45.39;100836.88;2085610;28;19916;-41
2022/01/21 05:00:09;;;;;;;;;;;;;;;18.10;45.50;100835.13;2083596;28;19919;-41
2022/01/21 05:01:10;;;;;;;;;;;;;;;18.10;45.49;100835.97;2082347;28;19995;-41
2022/01/21 05:02:11;;;;;;;;;;;;;;;18.10;45.50;100840.56;2080525;28;19917;-41
2022/01/21 05:03:11;;;;;;;;;;;;;;;18.09;45.35;100839.72;2079168;28;19963;-41
2022/01/21 05:04:12;;;;;;;;;;;;;;;18.08;45.59;100843.44;2084309;28;19978;-41
2022/01/21 05:05:12;;;;;;;;;;;;;;;18.08;45.51;100838.00;2085460;28;19970;-41
2022/01/21 05:06:13;;;;;;;;;;;;;;;18.07;45.53;100841.69;2083323;28;19916;-41
2022/01/21 05:07:18;;;;;;;;;;;;;;;18.08;45.59;100848.00;2080412;28;19932;-41
2022/01/21 05:09:01;;;;;;;;;;;;;;;18.07;45.58;100849.00;2083361;28;19912;-41
2022/01/21 05:09:42;;;;;;;;;;;;;;;18.07;45.49;100846.28;2081731;28;20015;-41
2022/01/21 05:10:42;;;;;;;;;;;;;;;18.07;45.41;100843.56;2085393;28;19920;-41
2022/01/21 05:11:43;;;;;;;;;;;;;;;18.07;45.61;100846.28;2081064;28;20065;-42
2022/01/21 05:12:44;;;;;;;;;;;;;;;18.07;45.53;100840.84;2084920;28;19912;-41
2022/01/21 05:13:54;;;;;;;;;;;;;;;18.06;45.56;100841.84;2085524;28;19916;-41
2022/01/21 05:16:08;;;;;;;;;;;;;;;18.05;45.40;100838.22;2082182;28;20023;-41
2022/01/21 05:17:10;;;;;;;;;;;;;;;18.05;45.70;100842.81;2083982;28;20242;-41
2022/01/21 05:18:11;;;;;;;;;;;;;;;18.04;45.49;100843.81;2082896;28;19943;-41
2022/01/21 05:19:16;;;;;;;;;;;;;;;18.04;45.59;100847.41;2084410;28;19920;-41
2022/01/21 05:20:17;;;;;;;;;;;;;;;18.04;45.45;100846.56;2083559;28;20269;-41
2022/01/21 05:21:17;;;;;;;;;;;;;;;18.04;45.65;100849.28;2084661;28;19920;-41
2022/01/21 05:22:18;;;;;;;;;;;;;;;18.02;45.75;100848.53;2083478;28;19912;-41
2022/01/21 05:23:18;;;;;;;;;;;;;;;18.00;45.54;100844.03;2083950;28;20360;-41
2022/01/21 05:24:20;;;;;;;;;;;;;;;18.00;45.40;100841.31;2084101;28;19983;-41
2022/01/21 05:25:20;;;;;;;;;;;;;;;17.99;45.49;100845.06;2082074;28;19971;-41
2022/01/21 05:26:21;;;;;;;;;;;;;;;17.98;45.67;100851.50;2082235;28;19923;-41
2022/01/21 05:27:21;;;;;;;;;;;;;;;17.97;45.75;100844.31;2082259;28;20290;-41
2022/01/21 05:28:22;;;;;;;;;;;;;;;17.96;45.77;100850.75;2085769;28;19922;-41
2022/01/21 05:29:23;;;;;;;;;;;;;;;17.96;45.66;100848.03;2083918;28;19921;-41
2022/01/21 05:30:24;;;;;;;;;;;;;;;17.95;45.66;100846.28;2082993;28;19920;-41
2022/01/21 05:31:24;;;;;;;;;;;;;;;17.94;45.51;100841.84;2083158;28;20259;-42
2022/01/21 05:32:24;;;;;;;;;;;;;;;17.94;45.78;100840.97;2081980;28;19932;-41
2022/01/21 05:33:24;;;;;;;;;;;;;;;17.92;45.73;100843.81;2083495;28;20038;-42
2022/01/21 05:34:25;;;;;;;;;;;;;;;17.93;45.69;100847.41;2083065;28;19995;-41
2022/01/21 05:35:25;;;;;;;;;;;;;;;17.92;45.74;100854.72;2082164;28;19924;-41
2022/01/21 05:36:26;;;;;;;;;;;;;;;17.91;45.71;100850.28;2083875;28;20027;-41
2022/01/21 05:37:27;;;;;;;;;;;;;;;17.92;45.94;100859.31;2081850;28;19927;-41
2022/01/21 05:38:27;;;;;;;;;;;;;;;17.91;45.69;100852.13;2079260;28;19928;-41
2022/01/21 05:39:27;;;;;;;;;;;;;;;17.91;45.80;100857.59;2084234;28;19988;-41
2022/01/21 05:40:28;;;;;;;;;;;;;;;17.91;45.81;100865.78;2082043;28;19941;-41
2022/01/21 05:41:28;;;;;;;;;;;;;;;17.90;45.69;100853.97;2083173;28;19964;-41
2022/01/21 05:42:29;;;;;;;;;;;;;;;17.91;45.82;100852.13;2081987;28;19920;-41
2022/01/21 05:43:29;;;;;;;;;;;;;;;17.90;45.84;100856.69;2083486;28;19921;-41
2022/01/21 05:47:49;;;;;;;;;;;;;;;17.90;45.76;100862.16;2078905;28;20278;-41
2022/01/21 05:48:49;;;;;;;;;;;;;;;17.90;45.81;100859.44;2084126;28;20199;-41
2022/01/21 05:49:49;;;;;;;;;;;;;;;17.90;45.83;100861.28;2082713;28;19917;-41
2022/01/21 05:50:50;;;;;;;;;;;;;;;17.89;45.80;100871.34;2077926;28;20364;-41
2022/01/21 05:51:52;;;;;;;;;;;;;;;17.88;45.91;100864.13;2083365;28;19920;-41
2022/01/21 05:52:54;;;;;;;;;;;;;;;17.88;45.83;100874.19;2082963;28;20011;-41
2022/01/21 05:53:55;;;;;;;;;;;;;;;17.86;45.94;100863.41;2085058;28;20232;-41
2022/01/21 05:54:55;;;;;;;;;;;;;;;17.86;45.71;100865.25;2081426;28;19913;-41
2022/01/21 05:56:01;;;;;;;;;;;;;;;17.85;45.75;100864.38;2084640;28;19921;-41
2022/01/21 05:57:05;;;;;;;;;;;;;;;17.82;45.79;100864.66;2079643;28;19921;-41
2022/01/21 05:58:05;;;;;;;;;;;;;;;17.84;45.93;100873.56;2082561;28;19916;-41
2022/01/21 05:59:07;;;;;;;;;;;;;;;17.83;45.92;100882.72;2083945;28;20422;-41
2022/01/21 06:00:07;;;;;;;;;;;;;;;17.81;45.97;100882.00;2079990;28;20326;-41
2022/01/21 06:01:08;;;;;;;;;;;;;;;17.82;46.01;100875.56;2079305;28;19962;-41
2022/01/21 06:02:10;;;;;;;;;;;;;;;17.82;45.92;100875.56;2076635;28;19931;-41
2022/01/21 06:03:11;;;;;;;;;;;;;;;17.81;45.75;100876.56;2081990;28;19916;-41
2022/01/21 06:04:12;;;;;;;;;;;;;;;17.81;45.90;100879.28;2077494;28;19939;-42
2022/01/21 06:05:13;;;;;;;;;;;;;;;17.79;45.94;100882.09;2083843;28;20060;-41
2022/01/21 06:06:13;;;;;;;;;;;;;;;17.79;46.03;100889.41;2084320;28;19916;-41
2022/01/21 06:07:14;;;;;;;;;;;;;;;17.80;45.97;100893.88;2084250;28;19916;-41